Time;durP1;ratioP1;P1;durP2;ratioP2;P2;SDS_P1;SDS_P2;PMS_P1;PMS_P2;Temp;Humidity;BMP_temperature;BMP_pressure;BME280_temperature;BME280_humidity;BME280_pressure;Samples;Min_cycle;Max_cycle;Signal;HPM_P1;HPM_P2
2021/03/03 00:00:28;;;;;;;26.40;13.30;;;7.30;99.90;;;;;;5050239;28;21116;-68
2021/03/03 00:02:55;;;;;;;21.20;10.73;;;7.10;99.90;;;;;;5048810;28;20503;-68
2021/03/03 00:05:21;;;;;;;22.93;12.37;;;7.10;99.90;;;;;;5043820;28;20434;-68
2021/03/03 00:07:48;;;;;;;18.10;12.50;;;7.10;99.90;;;;;;5046144;28;20454;-68
2021/03/03 00:10:15;;;;;;;17.57;9.70;;;7.10;99.90;;;;;;5050083;28;20542;-68
2021/03/03 00:12:41;;;;;;;19.23;10.63;;;7.10;99.90;;;;;;5051980;28;20539;-68
2021/03/03 00:15:10;;;;;;;15.53;9.57;;;7.00;99.90;;;;;;5051096;28;20458;-68
2021/03/03 00:17:37;;;;;;;22.47;12.67;;;7.10;99.90;;;;;;5050502;28;20831;-68
2021/03/03 00:20:05;;;;;;;18.77;10.73;;;7.00;99.90;;;;;;5052330;28;20524;-68
2021/03/03 00:22:32;;;;;;;18.83;11.87;;;6.90;99.90;;;;;;5058226;28;20433;-68
2021/03/03 00:24:58;;;;;;;15.13;9.87;;;6.80;99.90;;;;;;5050200;28;20429;-68
2021/03/03 00:27:25;;;;;;;19.73;12.00;;;6.90;99.90;;;;;;5048530;28;21180;-68
2021/03/03 00:29:52;;;;;;;27.13;13.73;;;6.80;99.90;;;;;;5049534;28;20462;-68
2021/03/03 00:32:19;;;;;;;22.10;12.87;;;6.90;99.90;;;;;;5051750;28;20463;-68
2021/03/03 00:34:45;;;;;;;22.50;11.63;;;6.80;99.90;;;;;;5049252;28;20557;-68
2021/03/03 00:37:12;;;;;;;17.10;10.97;;;6.80;99.90;;;;;;5047380;28;20457;-68
2021/03/03 00:39:39;;;;;;;25.77;10.87;;;6.80;99.90;;;;;;5050854;28;20568;-68
2021/03/03 00:42:06;;;;;;;18.03;12.33;;;6.70;99.90;;;;;;5051941;28;21035;-69
2021/03/03 00:44:33;;;;;;;22.03;13.77;;;6.70;99.90;;;;;;5053101;28;20840;-68
2021/03/03 00:46:59;;;;;;;25.53;11.47;;;6.70;99.90;;;;;;5054613;28;20434;-68
2021/03/03 00:49:27;;;;;;;13.53;9.90;;;6.60;99.90;;;;;;5053245;28;20469;-69
2021/03/03 00:51:53;;;;;;;17.40;11.30;;;6.60;99.90;;;;;;5050509;28;20917;-69
2021/03/03 00:54:20;;;;;;;24.83;12.43;;;6.60;99.90;;;;;;5052206;28;20528;-69
2021/03/03 00:56:46;;;;;;;24.23;12.73;;;6.60;99.90;;;;;;5053824;28;20565;-69
2021/03/03 00:59:13;;;;;;;17.80;10.77;;;6.50;99.90;;;;;;5053612;28;21024;-68
2021/03/03 01:01:40;;;;;;;17.23;12.70;;;6.50;99.90;;;;;;5052938;28;20432;-68
2021/03/03 01:04:07;;;;;;;20.87;11.90;;;6.40;99.90;;;;;;5036084;28;21025;-68
2021/03/03 01:06:34;;;;;;;12.30;8.53;;;6.40;99.90;;;;;;5054425;28;21035;-69
2021/03/03 01:09:00;;;;;;;17.30;10.90;;;6.40;99.90;;;;;;5056910;28;20478;-68
2021/03/03 01:11:27;;;;;;;19.40;9.20;;;6.40;99.90;;;;;;5053986;28;20438;-68
2021/03/03 01:13:54;;;;;;;16.80;10.80;;;6.40;99.90;;;;;;5054835;28;20560;-68
2021/03/03 01:16:21;;;;;;;10.60;7.60;;;6.30;99.90;;;;;;5053528;28;20457;-68
2021/03/03 01:18:47;;;;;;;30.73;12.70;;;6.30;99.90;;;;;;5058651;28;20462;-68
2021/03/03 01:21:14;;;;;;;19.10;11.00;;;6.30;99.90;;;;;;5053427;28;20434;-68
2021/03/03 01:23:41;;;;;;;16.30;10.23;;;6.30;99.90;;;;;;5056549;28;20929;-69
2021/03/03 01:26:08;;;;;;;18.77;8.50;;;6.20;99.90;;;;;;5053612;28;20541;-68
2021/03/03 01:28:35;;;;;;;15.37;7.87;;;6.20;99.90;;;;;;5055562;28;20459;-68
2021/03/03 01:31:02;;;;;;;17.93;9.67;;;6.20;99.90;;;;;;5036475;28;20454;-69
2021/03/03 01:33:30;;;;;;;27.23;9.73;;;6.10;99.90;;;;;;5055628;28;21013;-68
2021/03/03 01:35:57;;;;;;;14.90;10.83;;;6.20;99.90;;;;;;5056410;28;20507;-68
2021/03/03 01:38:24;;;;;;;14.67;9.67;;;6.10;99.90;;;;;;5050021;28;20536;-68
2021/03/03 01:40:52;;;;;;;13.20;7.87;;;6.10;99.90;;;;;;5054126;28;20520;-68
2021/03/03 01:43:19;;;;;;;23.80;9.20;;;6.20;99.90;;;;;;5056019;28;20424;-69
2021/03/03 01:45:45;;;;;;;13.30;7.90;;;6.10;99.90;;;;;;5053672;28;20459;-67
2021/03/03 01:48:12;;;;;;;11.93;8.67;;;6.10;99.90;;;;;;5055347;28;20535;-68
2021/03/03 01:50:39;;;;;;;10.47;7.17;;;6.10;99.90;;;;;;5051577;28;20561;-68
2021/03/03 01:53:06;;;;;;;17.60;8.50;;;6.00;99.90;;;;;;5055928;28;20503;-68
2021/03/03 01:55:33;;;;;;;19.50;7.93;;;6.00;99.90;;;;;;5054336;28;20425;-69
2021/03/03 01:58:01;;;;;;;20.03;9.27;;;6.00;99.90;;;;;;5054736;28;20887;-68
2021/03/03 02:00:28;;;;;;;19.27;10.83;;;5.90;99.90;;;;;;5053155;28;20444;-68
2021/03/03 02:02:55;;;;;;;11.03;7.53;;;5.90;99.90;;;;;;5051191;28;20551;-69
2021/03/03 02:05:21;;;;;;;19.93;9.77;;;5.90;99.90;;;;;;5055882;28;20874;-68
2021/03/03 02:07:53;;;;;;;27.23;8.50;;;6.00;99.90;;;;;;5055509;28;20474;-68
2021/03/03 02:10:26;;;;;;;8.83;6.17;;;5.90;99.90;;;;;;5057575;28;20440;-68
2021/03/03 02:12:58;;;;;;;13.23;7.30;;;5.90;99.90;;;;;;5057220;28;20430;-68
2021/03/03 02:15:28;;;;;;;13.83;7.90;;;5.90;99.90;;;;;;5049713;28;20433;-68
2021/03/03 02:17:56;;;;;;;8.80;5.47;;;5.80;99.90;;;;;;5053983;28;20474;-68
2021/03/03 02:20:27;;;;;;;14.87;7.87;;;5.90;99.90;;;;;;5057977;28;20458;-68
2021/03/03 02:23:11;;;;;;;18.53;7.80;;;5.80;99.90;;;;;;5053377;28;20454;-68
2021/03/03 02:25:40;;;;;;;14.03;7.57;;;5.80;99.90;;;;;;5054614;28;20467;-68
2021/03/03 02:28:10;;;;;;;7.93;6.97;;;5.70;99.90;;;;;;5058070;28;20506;-68
2021/03/03 02:30:38;;;;;;;21.17;9.30;;;5.70;99.90;;;;;;5054287;28;20495;-68
2021/03/03 02:33:06;;;;;;;11.77;6.90;;;5.70;99.90;;;;;;5056061;28;21160;-68
2021/03/03 02:35:33;;;;;;;13.13;7.57;;;5.70;99.90;;;;;;5055461;28;20465;-68
2021/03/03 02:38:03;;;;;;;11.73;6.90;;;5.60;99.90;;;;;;5054399;28;20495;-69
2021/03/03 02:40:30;;;;;;;12.23;7.70;;;5.60;99.90;;;;;;5050682;28;20596;-70
2021/03/03 02:42:59;;;;;;;13.90;8.07;;;5.60;99.90;;;;;;5055511;28;20512;-69
2021/03/03 02:45:26;;;;;;;14.10;8.53;;;5.60;99.90;;;;;;5054086;28;20507;-70
2021/03/03 02:47:53;;;;;;;11.63;6.47;;;5.60;99.90;;;;;;5059479;28;20625;-70
2021/03/03 02:50:20;;;;;;;18.00;8.80;;;5.70;99.90;;;;;;5051712;28;20615;-69
2021/03/03 02:52:51;;;;;;;17.13;8.20;;;5.70;99.90;;;;;;5050998;28;20426;-69
2021/03/03 02:55:18;;;;;;;10.37;6.47;;;5.60;99.90;;;;;;5057043;28;20434;-70
2021/03/03 02:57:45;;;;;;;15.17;7.83;;;5.60;99.90;;;;;;5053572;28;20907;-70
2021/03/03 03:00:14;;;;;;;9.60;7.37;;;5.60;99.90;;;;;;5052854;28;20906;-70
2021/03/03 03:02:43;;;;;;;11.10;5.63;;;5.60;99.90;;;;;;5053685;28;20438;-69
2021/03/03 03:05:12;;;;;;;9.80;7.00;;;5.60;99.90;;;;;;5055693;28;20893;-70
2021/03/03 03:07:43;;;;;;;13.37;7.87;;;5.50;99.90;;;;;;5056740;28;20536;-69
2021/03/03 03:10:14;;;;;;;13.97;8.70;;;5.40;99.90;;;;;;5055331;28;20426;-69
2021/03/03 03:12:44;;;;;;;14.63;6.47;;;5.30;99.90;;;;;;5048675;28;20428;-70
2021/03/03 03:15:15;;;;;;;10.10;6.90;;;5.30;99.90;;;;;;5056149;28;20436;-69
2021/03/03 03:17:44;;;;;;;18.40;7.83;;;5.20;99.90;;;;;;5052739;28;20546;-69
2021/03/03 03:20:13;;;;;;;8.37;7.47;;;5.20;99.90;;;;;;5047726;28;20440;-70
2021/03/03 03:22:40;;;;;;;12.23;7.13;;;5.30;99.90;;;;;;5052120;28;20517;-70
2021/03/03 03:25:09;;;;;;;10.43;5.97;;;5.30;99.90;;;;;;5054362;28;20451;-70
2021/03/03 03:27:37;;;;;;;8.57;5.40;;;5.30;99.90;;;;;;5051740;28;20458;-69
2021/03/03 03:30:04;;;;;;;16.00;7.83;;;5.20;99.90;;;;;;5048516;28;20466;-69
2021/03/03 03:32:33;;;;;;;12.60;7.83;;;5.20;99.90;;;;;;5052562;28;20433;-69
2021/03/03 03:35:00;;;;;;;8.17;6.40;;;5.10;99.90;;;;;;5052387;28;20931;-69
2021/03/03 03:37:27;;;;;;;16.03;8.03;;;5.20;99.90;;;;;;5050099;28;20532;-69
2021/03/03 03:39:54;;;;;;;13.27;8.73;;;5.10;99.90;;;;;;5051940;28;20532;-70
2021/03/03 03:42:21;;;;;;;11.67;8.37;;;5.10;99.90;;;;;;5055404;28;20781;-71
2021/03/03 03:44:48;;;;;;;7.83;5.73;;;5.20;99.90;;;;;;5054175;28;20543;-70
2021/03/03 03:47:17;;;;;;;12.97;6.50;;;5.10;99.90;;;;;;5050347;28;20580;-69
2021/03/03 03:49:46;;;;;;;7.37;5.93;;;5.10;99.90;;;;;;5055854;28;20432;-69
2021/03/03 03:52:15;;;;;;;9.57;5.90;;;5.00;99.90;;;;;;5047832;28;20524;-69
2021/03/03 03:54:48;;;;;;;9.20;6.50;;;4.80;99.90;;;;;;5051370;28;22127;-70
2021/03/03 03:57:15;;;;;;;6.17;5.40;;;4.80;99.90;;;;;;5048413;28;20468;-70
2021/03/03 03:59:42;;;;;;;11.53;6.27;;;4.70;99.90;;;;;;5057257;28;20482;-70
2021/03/03 04:02:08;;;;;;;10.97;7.97;;;4.70;99.90;;;;;;5055031;28;20838;-70
2021/03/03 04:04:35;;;;;;;13.27;8.50;;;4.80;99.90;;;;;;5047078;28;20455;-70
2021/03/03 04:07:04;;;;;;;11.67;6.43;;;4.80;99.90;;;;;;5055376;28;20429;-69
2021/03/03 04:09:30;;;;;;;13.63;5.63;;;4.90;99.90;;;;;;5055650;28;20506;-70
2021/03/03 04:11:57;;;;;;;9.90;6.40;;;4.90;99.90;;;;;;5056060;28;20828;-70
2021/03/03 04:14:23;;;;;;;12.87;7.63;;;5.00;99.90;;;;;;5059292;28;20444;-70
2021/03/03 04:16:50;;;;;;;7.73;6.83;;;5.00;99.90;;;;;;5054990;28;22131;-70
2021/03/03 04:19:17;;;;;;;9.77;6.97;;;4.90;99.90;;;;;;5053898;28;20532;-71
2021/03/03 04:21:44;;;;;;;11.13;6.67;;;4.90;99.90;;;;;;5049388;28;20467;-69
2021/03/03 04:24:11;;;;;;;11.57;6.53;;;5.00;99.90;;;;;;5051434;28;20456;-69
2021/03/03 04:26:38;;;;;;;7.77;4.90;;;4.80;99.90;;;;;;5057825;28;20458;-70
2021/03/03 04:29:04;;;;;;;22.43;6.67;;;4.80;99.90;;;;;;5060667;28;20557;-70
2021/03/03 04:31:31;;;;;;;7.00;5.80;;;4.90;99.90;;;;;;5058213;28;20986;-69
2021/03/03 04:33:57;;;;;;;11.67;6.07;;;4.90;99.90;;;;;;5049598;28;20555;-69
2021/03/03 04:36:24;;;;;;;12.23;5.93;;;4.90;99.90;;;;;;5052999;28;20997;-69
2021/03/03 04:38:51;;;;;;;8.03;5.60;;;4.90;99.90;;;;;;5051540;28;20471;-69
2021/03/03 04:41:18;;;;;;;8.70;5.37;;;4.80;99.90;;;;;;5052372;28;20755;-69
2021/03/03 04:43:45;;;;;;;10.50;6.47;;;4.80;99.90;;;;;;5057243;28;20496;-69
2021/03/03 04:46:11;;;;;;;9.90;6.63;;;4.80;99.90;;;;;;5038764;28;20569;-69
2021/03/03 04:48:39;;;;;;;13.60;7.93;;;4.80;99.90;;;;;;5053709;28;21182;-68
2021/03/03 04:51:05;;;;;;;14.20;7.23;;;4.90;99.90;;;;;;5054692;28;20447;-69
2021/03/03 04:53:32;;;;;;;13.03;5.70;;;5.00;99.90;;;;;;5050451;28;20449;-68
2021/03/03 04:55:59;;;;;;;10.30;7.13;;;5.00;99.90;;;;;;5055068;28;20565;-70
2021/03/03 04:58:26;;;;;;;29.90;8.83;;;5.00;99.90;;;;;;5055195;28;20491;-69
2021/03/03 05:00:53;;;;;;;21.53;7.10;;;5.00;99.90;;;;;;5060274;28;20825;-69
2021/03/03 05:03:20;;;;;;;24.03;9.57;;;5.10;99.90;;;;;;5054084;28;20524;-69
2021/03/03 05:05:46;;;;;;;7.17;5.37;;;5.10;99.90;;;;;;5055973;28;20452;-70
2021/03/03 05:08:13;;;;;;;15.73;7.20;;;5.10;99.90;;;;;;5055501;28;20635;-69
2021/03/03 05:10:40;;;;;;;9.30;6.00;;;5.10;99.90;;;;;;5047432;28;20429;-70
2021/03/03 05:13:14;;;;;;;12.43;7.87;;;4.90;99.90;;;;;;5053667;28;22055;-70
2021/03/03 05:15:41;;;;;;;7.53;6.63;;;4.90;99.90;;;;;;5051511;28;20421;-71
2021/03/03 05:18:09;;;;;;;26.80;10.97;;;4.90;99.90;;;;;;5052829;28;20524;-70
2021/03/03 05:20:36;;;;;;;19.77;7.03;;;5.00;99.90;;;;;;5056626;28;20908;-70
2021/03/03 05:23:02;;;;;;;9.00;5.83;;;4.90;99.90;;;;;;5055024;28;20486;-70
2021/03/03 05:25:29;;;;;;;8.30;5.87;;;4.80;99.90;;;;;;5059113;28;20878;-71
2021/03/03 05:27:56;;;;;;;13.00;6.60;;;5.00;99.90;;;;;;5057413;28;20452;-70
2021/03/03 05:30:24;;;;;;;11.17;7.17;;;4.80;99.90;;;;;;5058372;28;20459;-69
2021/03/03 05:32:51;;;;;;;9.07;7.60;;;4.90;99.90;;;;;;5061715;28;20429;-70
2021/03/03 05:35:18;;;;;;;9.93;6.50;;;4.80;99.90;;;;;;5057055;28;20433;-70
2021/03/03 05:37:45;;;;;;;18.77;7.30;;;4.80;99.90;;;;;;5054242;28;20503;-69
2021/03/03 05:40:13;;;;;;;13.40;7.87;;;4.90;99.90;;;;;;5060954;28;20429;-69
2021/03/03 05:42:39;;;;;;;9.70;6.73;;;4.90;99.90;;;;;;5059663;28;20472;-69
2021/03/03 05:45:07;;;;;;;15.90;8.27;;;4.80;99.90;;;;;;5056441;28;20439;-69
2021/03/03 05:47:37;;;;;;;11.23;7.20;;;4.80;99.90;;;;;;5062093;28;21012;-70
2021/03/03 05:50:07;;;;;;;8.40;5.30;;;5.00;99.90;;;;;;5061527;28;20454;-68
2021/03/03 05:52:34;;;;;;;12.90;7.60;;;5.00;99.90;;;;;;5065506;28;20870;-68
2021/03/03 05:55:03;;;;;;;18.30;8.93;;;5.10;99.90;;;;;;5060781;28;20547;-68
2021/03/03 05:57:31;;;;;;;18.30;8.30;;;5.10;99.90;;;;;;5060450;28;20460;-68
2021/03/03 05:59:59;;;;;;;12.87;8.37;;;4.90;99.90;;;;;;5061256;28;20553;-68
2021/03/03 06:02:26;;;;;;;12.87;9.00;;;4.90;99.90;;;;;;5061532;28;20589;-69
2021/03/03 06:04:53;;;;;;;15.57;6.90;;;5.00;99.90;;;;;;5060638;28;20648;-69
2021/03/03 06:07:22;;;;;;;21.57;8.13;;;5.10;99.90;;;;;;5061850;28;21066;-68
2021/03/03 06:09:49;;;;;;;25.60;10.03;;;5.10;99.90;;;;;;5061023;28;20455;-69
2021/03/03 06:12:15;;;;;;;21.00;8.83;;;5.10;99.90;;;;;;5062249;28;20817;-69
2021/03/03 06:14:42;;;;;;;13.73;7.47;;;4.90;99.90;;;;;;5062596;28;20554;-69
2021/03/03 06:17:08;;;;;;;16.67;7.60;;;5.00;99.90;;;;;;5061139;28;20448;-68
2021/03/03 06:19:36;;;;;;;13.30;8.77;;;5.00;99.90;;;;;;5063137;28;20462;-69
2021/03/03 06:22:22;;;;;;;15.27;7.87;;;5.10;99.90;;;;;;5062379;28;20845;-69
2021/03/03 06:24:50;;;;;;;31.23;10.43;;;5.10;99.90;;;;;;5062096;28;20482;-69
2021/03/03 06:27:16;;;;;;;29.30;9.10;;;5.20;99.90;;;;;;5063609;28;20458;-70
2021/03/03 06:30:01;;;;;;;11.07;6.77;;;5.10;99.90;;;;;;5062067;28;20436;-70
2021/03/03 06:32:27;;;;;;;30.27;10.10;;;5.10;99.90;;;;;;5061943;28;20474;-70
2021/03/03 06:34:54;;;;;;;18.87;9.70;;;5.20;99.90;;;;;;5061662;28;20593;-71
2021/03/03 06:37:22;;;;;;;21.33;6.43;;;5.10;99.90;;;;;;5061359;28;20433;-69
2021/03/03 06:40:07;;;;;;;12.43;9.13;;;5.20;99.90;;;;;;5061466;28;20995;-69
2021/03/03 06:42:34;;;;;;;16.03;8.70;;;5.20;99.90;;;;;;5062210;28;20981;-68
2021/03/03 06:45:00;;;;;;;12.33;7.03;;;5.40;99.90;;;;;;5062413;28;20473;-69
2021/03/03 06:47:27;;;;;;;23.43;9.87;;;5.40;99.90;;;;;;5062883;28;20509;-69
2021/03/03 06:50:09;;;;;;;10.97;6.43;;;5.40;99.90;;;;;;5064325;28;20538;-69
2021/03/03 06:52:41;;;;;;;15.70;9.80;;;5.40;99.90;;;;;;5062258;28;21009;-68
2021/03/03 06:55:08;;;;;;;22.57;8.70;;;5.50;99.90;;;;;;5064531;28;20810;-69
2021/03/03 06:57:35;;;;;;;16.33;7.70;;;5.50;99.90;;;;;;5060745;28;20823;-69
2021/03/03 07:00:02;;;;;;;24.77;8.23;;;5.50;99.90;;;;;;5060656;28;20429;-68
2021/03/03 07:02:31;;;;;;;20.63;12.40;;;5.40;99.90;;;;;;5063968;28;20957;-69
2021/03/03 07:04:58;;;;;;;13.47;8.07;;;5.50;99.90;;;;;;5066785;28;20425;-70
2021/03/03 07:07:25;;;;;;;18.73;9.90;;;5.60;99.90;;;;;;5056018;28;20973;-70
2021/03/03 07:09:58;;;;;;;14.33;6.90;;;5.70;99.90;;;;;;5064385;28;20468;-69
2021/03/03 07:12:26;;;;;;;14.90;8.93;;;5.70;99.90;;;;;;5060964;28;20441;-69
2021/03/03 07:14:58;;;;;;;17.30;10.40;;;5.70;99.90;;;;;;5070375;28;20512;-69
2021/03/03 07:17:25;;;;;;;21.30;9.27;;;5.80;99.90;;;;;;5065927;28;20800;-69
2021/03/03 07:19:52;;;;;;;11.80;8.33;;;5.90;99.90;;;;;;5063702;28;20582;-69
2021/03/03 07:22:37;;;;;;;20.07;10.80;;;6.00;99.90;;;;;;5060761;28;20465;-69
2021/03/03 07:25:07;;;;;;;25.77;11.80;;;6.10;99.90;;;;;;5061114;28;20887;-70
2021/03/03 07:27:34;;;;;;;15.10;9.00;;;6.20;99.90;;;;;;5059347;28;21113;-69
2021/03/03 07:30:04;;;;;;;29.53;11.07;;;6.30;99.90;;;;;;5062137;28;20453;-69
2021/03/03 07:32:31;;;;;;;21.10;9.13;;;6.30;99.90;;;;;;5058751;28;20547;-69
2021/03/03 07:34:58;;;;;;;17.67;9.03;;;6.40;99.90;;;;;;5058265;28;20928;-69
2021/03/03 07:37:31;;;;;;;12.70;9.17;;;6.40;99.90;;;;;;5059684;28;20483;-69
2021/03/03 07:40:01;;;;;;;19.10;7.63;;;6.60;99.90;;;;;;5065497;28;20570;-69
2021/03/03 07:42:29;;;;;;;14.43;8.33;;;6.90;99.90;;;;;;5059581;28;20436;-70
2021/03/03 07:44:58;;;;;;;18.00;9.23;;;7.20;99.90;;;;;;5059376;28;20473;-70
2021/03/03 07:47:28;;;;;;;21.40;10.30;;;7.40;99.90;;;;;;5060521;28;20434;-68
2021/03/03 07:49:58;;;;;;;16.20;10.23;;;7.50;99.90;;;;;;5060695;28;20455;-68
2021/03/03 07:52:25;;;;;;;16.93;9.90;;;7.60;99.90;;;;;;5060634;28;20434;-69
2021/03/03 07:54:52;;;;;;;14.80;11.00;;;7.70;99.90;;;;;;5064180;28;21315;-69
2021/03/03 07:57:19;;;;;;;23.63;10.73;;;7.90;99.90;;;;;;5063751;28;20532;-69
2021/03/03 07:59:47;;;;;;;23.50;9.93;;;8.10;99.90;;;;;;5059539;28;20642;-69
2021/03/03 08:02:13;;;;;;;24.47;10.33;;;8.00;99.90;;;;;;5061138;28;20927;-69
2021/03/03 08:04:41;;;;;;;21.33;9.40;;;8.00;99.90;;;;;;5061018;28;20835;-68
2021/03/03 08:07:22;;;;;;;23.23;8.10;;;8.10;99.90;;;;;;5060400;28;20439;-68
2021/03/03 08:10:25;;;;;;;67.73;14.83;;;8.30;99.90;;;;;;5064297;28;20520;-69
2021/03/03 08:13:03;;;;;;;35.93;12.60;;;8.60;99.90;;;;;;5065241;28;20491;-69
2021/03/03 08:15:38;;;;;;;35.90;15.17;;;8.80;99.90;;;;;;5061871;28;20494;-69
2021/03/03 08:18:27;;;;;;;40.53;12.10;;;8.70;99.90;;;;;;5060849;28;20453;-68
2021/03/03 08:20:56;;;;;;;27.73;14.77;;;8.90;99.90;;;;;;5059141;28;20417;-69
2021/03/03 08:23:45;;;;;;;35.60;15.20;;;9.30;99.90;;;;;;5061340;28;20425;-69
2021/03/03 08:26:32;;;;;;;34.67;14.83;;;9.90;99.90;;;;;;5059714;28;20495;-68
2021/03/03 08:29:16;;;;;;;28.10;15.63;;;10.30;99.90;;;;;;5065478;28;20479;-69
2021/03/03 08:31:43;;;;;;;54.57;15.30;;;10.90;99.90;;;;;;5061073;28;20471;-70
2021/03/03 08:34:10;;;;;;;26.80;13.27;;;11.30;99.90;;;;;;5062365;28;20507;-69
2021/03/03 08:37:04;;;;;;;34.97;14.53;;;11.60;99.90;;;;;;5061169;28;23000;-69
2021/03/03 08:39:39;;;;;;;24.70;13.90;;;12.10;99.90;;;;;;5031147;28;20512;-70
2021/03/03 08:42:30;;;;;;;31.43;14.27;;;12.40;99.90;;;;;;5058401;28;20533;-69
2021/03/03 08:45:05;;;;;;;19.73;14.00;;;13.10;99.90;;;;;;5053169;28;20545;-69
2021/03/03 08:47:57;;;;;;;22.43;13.07;;;13.20;99.90;;;;;;5057992;28;20455;-69
2021/03/03 08:50:32;;;;;;;23.33;12.93;;;13.60;99.90;;;;;;5062944;28;20451;-71
2021/03/03 08:53:18;;;;;;;19.23;13.93;;;14.20;99.90;;;;;;5060568;28;20521;-69
2021/03/03 08:55:44;;;;;;;32.13;14.60;;;14.60;99.90;;;;;;5055823;28;20508;-68
2021/03/03 08:58:48;;;;;;;28.17;15.40;;;14.50;99.90;;;;;;5062586;28;20525;-69
2021/03/03 09:01:15;;;;;;;31.90;16.67;;;14.50;99.90;;;;;;5061631;28;20477;-69
2021/03/03 09:03:42;;;;;;;40.73;16.33;;;14.20;99.90;;;;;;5058021;28;20501;-68
2021/03/03 09:06:10;;;;;;;31.40;14.63;;;14.10;99.90;;;;;;5060495;28;20914;-69
2021/03/03 09:08:36;;;;;;;22.63;13.30;;;13.90;99.90;;;;;;5057383;28;20565;-68
2021/03/03 09:11:03;;;;;;;23.33;10.87;;;14.10;99.90;;;;;;5063660;28;20504;-69
2021/03/03 09:13:30;;;;;;;14.60;10.27;;;14.20;99.90;;;;;;5058350;28;21136;-69
2021/03/03 09:16:05;;;;;;;15.07;11.87;;;14.20;99.90;;;;;;5062786;28;20566;-69
2021/03/03 09:18:32;;;;;;;17.00;9.10;;;14.30;99.90;;;;;;5062582;28;20548;-69
2021/03/03 09:21:07;;;;;;;12.80;9.20;;;14.40;99.90;;;;;;5059966;28;20466;-69
2021/03/03 09:23:35;;;;;;;20.27;9.70;;;14.40;99.90;;;;;;5067061;28;21006;-68
2021/03/03 09:26:01;;;;;;;12.90;8.50;;;14.60;99.90;;;;;;5061467;28;20538;-69
2021/03/03 09:28:41;;;;;;;14.83;8.50;;;14.60;99.90;;;;;;5059227;28;20563;-69
2021/03/03 09:31:08;;;;;;;22.67;9.20;;;14.80;99.90;;;;;;5065343;28;20452;-69
2021/03/03 09:33:35;;;;;;;23.00;9.70;;;14.90;99.90;;;;;;5065925;28;20569;-69
2021/03/03 09:36:02;;;;;;;25.90;10.63;;;15.00;99.90;;;;;;5062974;28;20553;-68
2021/03/03 09:38:30;;;;;;;16.60;8.70;;;14.80;99.90;;;;;;5062639;28;20566;-69
2021/03/03 09:41:08;;;;;;;20.90;9.90;;;14.60;99.90;;;;;;5065679;28;20454;-69
2021/03/03 09:43:35;;;;;;;21.60;10.20;;;14.60;99.90;;;;;;5061516;28;20454;-68
2021/03/03 09:46:01;;;;;;;29.80;9.10;;;14.70;99.90;;;;;;5059473;28;20562;-69
2021/03/03 09:48:29;;;;;;;18.40;8.43;;;14.90;99.90;;;;;;5060748;28;20515;-68
2021/03/03 09:50:57;;;;;;;19.57;10.43;;;14.90;99.90;;;;;;5063027;28;21005;-69
2021/03/03 09:53:24;;;;;;;15.80;8.03;;;14.70;99.90;;;;;;5061885;28;20463;-68
2021/03/03 09:55:52;;;;;;;19.57;9.07;;;14.50;99.90;;;;;;5063961;28;20465;-69
2021/03/03 09:58:18;;;;;;;20.60;12.33;;;14.50;99.90;;;;;;5058929;28;20901;-67
2021/03/03 10:00:45;;;;;;;21.23;10.13;;;14.30;99.90;;;;;;5063702;28;20478;-69
2021/03/03 10:03:14;;;;;;;10.70;7.37;;;14.30;99.90;;;;;;5061200;28;20482;-70
2021/03/03 10:05:41;;;;;;;17.57;10.07;;;14.30;99.90;;;;;;5063754;28;20454;-69
2021/03/03 10:08:10;;;;;;;18.30;9.30;;;14.40;99.90;;;;;;5061456;28;20506;-69
2021/03/03 10:10:38;;;;;;;19.80;10.47;;;14.40;99.90;;;;;;5066317;28;20490;-68
2021/03/03 10:13:06;;;;;;;14.63;8.37;;;14.50;99.90;;;;;;5063615;28;20876;-69
2021/03/03 10:15:33;;;;;;;22.53;7.90;;;14.70;99.90;;;;;;5062291;28;20500;-69
2021/03/03 10:18:02;;;;;;;14.50;8.03;;;14.80;99.90;;;;;;5061616;28;20524;-69
2021/03/03 10:20:34;;;;;;;20.37;10.97;;;15.00;99.90;;;;;;5065992;28;21027;-69
2021/03/03 10:23:07;;;;;;;27.00;12.47;;;15.20;99.90;;;;;;5063346;28;20501;-69
2021/03/03 10:25:36;;;;;;;22.03;11.00;;;15.50;99.90;;;;;;5062682;28;20513;-71
2021/03/03 10:28:09;;;;;;;17.60;11.77;;;15.90;99.90;;;;;;5060942;28;20475;-68
2021/03/03 10:30:38;;;;;;;22.17;10.60;;;15.90;99.90;;;;;;5066313;28;20489;-69
2021/03/03 10:33:06;;;;;;;17.50;9.67;;;16.00;99.90;;;;;;5062551;28;20491;-69
2021/03/03 10:35:32;;;;;;;19.23;10.20;;;16.00;99.90;;;;;;5064123;28;20485;-69
2021/03/03 10:38:12;;;;;;;23.50;9.03;;;16.00;99.90;;;;;;5062813;28;20486;-70
2021/03/03 10:40:40;;;;;;;24.03;10.30;;;16.10;99.90;;;;;;5063582;28;20521;-70
2021/03/03 10:43:12;;;;;;;24.00;12.50;;;17.00;99.90;;;;;;5063227;28;20534;-69
2021/03/03 10:45:39;;;;;;;21.30;10.53;;;18.10;99.90;;;;;;5065039;28;20554;-70
2021/03/03 10:48:07;;;;;;;11.77;9.40;;;19.20;99.80;;;;;;5062287;28;20569;-69
2021/03/03 10:50:38;;;;;;;20.67;12.17;;;19.70;95.70;;;;;;5059672;28;20458;-70
2021/03/03 10:53:05;;;;;;;23.07;13.10;;;19.90;94.20;;;;;;5064368;28;20447;-70
2021/03/03 10:55:35;;;;;;;22.83;13.10;;;20.40;93.90;;;;;;5058968;28;20517;-70
2021/03/03 10:58:06;;;;;;;19.07;11.30;;;20.70;92.00;;;;;;5063442;28;20486;-70
2021/03/03 11:00:53;;;;;;;19.00;12.40;;;20.70;90.50;;;;;;5064418;28;20545;-70
2021/03/03 11:03:20;;;;;;;25.60;12.10;;;20.00;91.30;;;;;;5063861;28;20546;-70
2021/03/03 11:05:50;;;;;;;20.00;12.77;;;20.30;90.80;;;;;;5064496;28;20537;-71
2021/03/03 11:08:17;;;;;;;32.00;14.53;;;20.30;89.90;;;;;;5058974;28;20538;-70
2021/03/03 11:10:44;;;;;;;23.50;15.30;;;20.20;89.50;;;;;;5062100;28;20450;-70
2021/03/03 11:13:10;;;;;;;24.87;14.43;;;20.00;90.20;;;;;;5066491;28;20459;-70
2021/03/03 11:15:41;;;;;;;34.87;14.97;;;20.10;90.10;;;;;;5062724;28;20486;-69
2021/03/03 11:18:08;;;;;;;26.93;14.67;;;20.60;90.10;;;;;;5060572;28;20490;-68
2021/03/03 11:20:36;;;;;;;26.40;15.40;;;21.00;87.90;;;;;;5065905;28;20941;-70
2021/03/03 11:23:02;;;;;;;26.73;16.23;;;21.10;87.90;;;;;;5063902;28;20561;-70
2021/03/03 11:25:29;;;;;;;28.20;14.43;;;20.90;88.10;;;;;;5064898;28;20490;-70
2021/03/03 11:27:56;;;;;;;31.30;16.50;;;21.50;86.50;;;;;;5060436;28;20512;-69
2021/03/03 11:30:22;;;;;;;28.77;16.77;;;22.10;83.10;;;;;;5062903;28;20463;-70
2021/03/03 11:32:51;;;;;;;41.83;17.60;;;22.20;82.80;;;;;;5059523;28;20589;-70
2021/03/03 11:35:17;;;;;;;21.83;14.30;;;22.60;81.40;;;;;;5060011;28;20524;-70
2021/03/03 11:37:44;;;;;;;33.87;16.83;;;23.00;78.80;;;;;;5062007;28;20478;-71
2021/03/03 11:40:12;;;;;;;27.67;18.30;;;23.10;78.40;;;;;;5061352;28;20463;-70
2021/03/03 11:42:39;;;;;;;26.33;18.87;;;23.00;77.80;;;;;;5061136;28;20459;-69
2021/03/03 11:45:07;;;;;;;28.60;17.80;;;22.40;77.50;;;;;;5060184;28;20470;-71
2021/03/03 11:47:34;;;;;;;28.60;16.90;;;22.20;81.20;;;;;;5064055;28;20479;-69
2021/03/03 11:50:01;;;;;;;33.57;18.10;;;22.30;81.30;;;;;;5062687;28;20452;-70
2021/03/03 11:52:28;;;;;;;34.37;16.67;;;22.10;79.00;;;;;;5061355;28;20520;-70
2021/03/03 11:54:55;;;;;;;27.53;17.70;;;22.20;78.30;;;;;;5060405;28;20934;-70
2021/03/03 11:57:21;;;;;;;28.73;18.07;;;21.70;79.80;;;;;;5042939;28;20585;-70
2021/03/03 11:59:49;;;;;;;28.77;17.70;;;21.80;80.30;;;;;;5059202;28;20501;-69
2021/03/03 12:02:16;;;;;;;26.63;15.87;;;21.60;81.30;;;;;;5061893;28;20501;-71
2021/03/03 12:04:43;;;;;;;27.73;16.67;;;21.40;82.90;;;;;;5060467;28;21041;-70
2021/03/03 12:07:10;;;;;;;36.40;19.17;;;21.60;81.20;;;;;;5060427;28;20887;-71
2021/03/03 12:09:37;;;;;;;28.40;17.53;;;21.90;79.80;;;;;;5065335;28;20558;-70
2021/03/03 12:12:04;;;;;;;32.17;15.93;;;21.60;79.90;;;;;;5062509;28;21509;-70
2021/03/03 12:14:31;;;;;;;32.57;17.70;;;21.20;81.10;;;;;;5063905;28;20501;-69
2021/03/03 12:16:57;;;;;;;25.97;16.10;;;21.40;80.70;;;;;;5058986;28;20496;-71
2021/03/03 12:19:24;;;;;;;26.83;16.67;;;22.00;79.90;;;;;;5060818;28;21073;-70
2021/03/03 12:21:51;;;;;;;33.27;17.33;;;22.30;78.40;;;;;;5061037;28;20463;-70
2021/03/03 12:24:18;;;;;;;18.30;12.40;;;22.20;77.30;;;;;;5061288;28;20463;-70
2021/03/03 12:26:45;;;;;;;24.23;17.43;;;22.20;77.00;;;;;;5062048;28;20593;-70
2021/03/03 12:29:11;;;;;;;30.50;18.27;;;22.40;78.50;;;;;;5062415;28;20982;-69
2021/03/03 12:31:38;;;;;;;26.37;18.50;;;22.40;77.80;;;;;;5059852;28;20871;-69
2021/03/03 12:34:05;;;;;;;30.13;19.47;;;22.50;78.20;;;;;;5060101;28;20505;-70
2021/03/03 12:36:32;;;;;;;26.50;17.47;;;22.60;78.10;;;;;;5040021;28;20905;-70
2021/03/03 12:38:58;;;;;;;26.20;17.90;;;22.30;77.30;;;;;;5060548;28;20470;-70
2021/03/03 12:41:26;;;;;;;32.47;16.33;;;21.80;79.20;;;;;;5061892;28;20558;-70
2021/03/03 12:43:52;;;;;;;23.70;14.43;;;21.90;76.60;;;;;;5062063;28;21037;-70
2021/03/03 12:46:19;;;;;;;34.13;15.77;;;22.10;76.70;;;;;;5059564;28;21016;-69
2021/03/03 12:48:45;;;;;;;29.33;16.80;;;22.10;76.70;;;;;;5061609;28;20582;-69